Time;durP1;ratioP1;P1;durP2;ratioP2;P2;SDS_P1;SDS_P2;PMS_P1;PMS_P2;Temp;Humidity;BMP_temperature;BMP_pressure;BME280_temperature;BME280_humidity;BME280_pressure;Samples;Min_cycle;Max_cycle;Signal;HPM_P1;HPM_P2
2021/07/05 00:01:12;;;;;;;14.43;9.45;;;15.20;99.90;;;;;;4973032;28;20051;-84
2021/07/05 00:03:39;;;;;;;19.40;9.75;;;15.20;99.90;;;;;;4951710;28;20051;-80
2021/07/05 00:06:05;;;;;;;15.55;10.00;;;15.10;99.90;;;;;;4966579;28;20051;-80
2021/07/05 00:08:32;;;;;;;15.05;9.70;;;15.20;99.90;;;;;;4952836;29;20137;-81
2021/07/05 00:10:59;;;;;;;14.80;9.18;;;15.10;99.90;;;;;;4951865;29;20047;-80
2021/07/05 00:13:27;;;;;;;16.55;9.68;;;15.10;99.90;;;;;;4952271;29;20039;-81
2021/07/05 00:15:55;;;;;;;14.02;9.13;;;15.10;99.90;;;;;;4984121;28;20127;-79
2021/07/05 00:18:22;;;;;;;13.02;9.18;;;15.00;99.90;;;;;;4976427;28;20058;-79
2021/07/05 00:20:49;;;;;;;18.23;9.95;;;15.00;99.90;;;;;;4936374;29;20418;-80
2021/07/05 00:23:16;;;;;;;14.70;9.18;;;14.90;99.90;;;;;;4981779;28;20059;-79
2021/07/05 00:25:44;;;;;;;14.15;8.88;;;14.80;99.90;;;;;;4933607;29;20509;-81
2021/07/05 00:28:11;;;;;;;16.05;7.72;;;14.90;99.90;;;;;;4951098;29;20078;-80
2021/07/05 00:30:39;;;;;;;14.60;9.65;;;14.90;99.90;;;;;;4949681;29;20043;-81
2021/07/05 00:33:06;;;;;;;15.13;9.05;;;14.80;99.90;;;;;;4966311;28;20095;-81
2021/07/05 00:35:33;;;;;;;11.93;8.05;;;14.70;99.90;;;;;;4974064;28;20069;-79
2021/07/05 00:38:00;;;;;;;11.85;8.88;;;14.70;99.90;;;;;;5003493;28;20594;-80
2021/07/05 00:40:28;;;;;;;16.55;9.18;;;14.70;99.90;;;;;;4952159;28;20055;-78
2021/07/05 00:42:56;;;;;;;18.75;8.40;;;14.70;99.90;;;;;;4949812;29;20453;-78
2021/07/05 00:45:24;;;;;;;11.73;8.05;;;14.60;99.90;;;;;;4934131;29;20182;-80
2021/07/05 00:47:52;;;;;;;13.70;9.65;;;14.60;99.90;;;;;;4928016;28;20047;-81
2021/07/05 00:50:21;;;;;;;12.65;8.80;;;14.50;99.90;;;;;;4984086;28;20066;-81
2021/07/05 00:52:52;;;;;;;14.15;9.35;;;14.50;99.90;;;;;;4984207;28;20524;-80
2021/07/05 00:55:19;;;;;;;12.30;7.93;;;14.40;99.90;;;;;;4977506;28;20051;-82
2021/07/05 00:57:46;;;;;;;16.50;8.23;;;14.40;99.90;;;;;;4934513;29;20051;-80
2021/07/05 01:00:16;;;;;;;15.10;8.85;;;14.30;99.90;;;;;;4949627;28;20059;-81
2021/07/05 01:02:43;;;;;;;12.32;9.50;;;14.30;99.90;;;;;;4951011;29;20094;-80
2021/07/05 01:05:12;;;;;;;18.58;9.30;;;14.30;99.90;;;;;;4937819;28;20165;-79
2021/07/05 01:07:40;;;;;;;16.20;9.38;;;14.30;99.90;;;;;;4992429;28;20062;-78
2021/07/05 01:10:08;;;;;;;13.98;8.85;;;14.20;99.90;;;;;;4960315;28;20039;-81
2021/07/05 01:12:35;;;;;;;19.25;9.70;;;14.10;99.90;;;;;;4931541;29;20426;-78
2021/07/05 01:15:03;;;;;;;19.92;10.15;;;14.20;99.90;;;;;;4930308;29;20058;-80
2021/07/05 01:17:30;;;;;;;15.07;9.32;;;14.10;99.90;;;;;;4935067;28;20085;-81
2021/07/05 01:19:58;;;;;;;19.55;10.40;;;14.10;99.90;;;;;;4949727;28;20045;-83
2021/07/05 01:22:25;;;;;;;15.55;9.68;;;14.00;99.90;;;;;;4937028;28;20210;-82
2021/07/05 01:24:52;;;;;;;14.70;9.15;;;13.90;99.90;;;;;;4953083;28;20134;-82
2021/07/05 01:27:20;;;;;;;14.40;8.77;;;13.90;99.90;;;;;;4985228;28;20057;-79
2021/07/05 01:29:47;;;;;;;19.40;10.70;;;13.80;99.90;;;;;;4983963;28;20047;-79
2021/07/05 01:32:14;;;;;;;15.57;9.82;;;13.80;99.90;;;;;;4954812;28;20134;-78
2021/07/05 01:34:41;;;;;;;15.90;10.10;;;13.80;99.90;;;;;;4986039;28;20067;-80
2021/07/05 01:37:10;;;;;;;18.52;10.02;;;13.70;99.90;;;;;;4961087;28;20047;-80
2021/07/05 01:39:37;;;;;;;13.48;9.50;;;13.60;99.90;;;;;;4972589;28;20053;-81
2021/07/05 01:42:05;;;;;;;14.63;8.95;;;13.60;99.90;;;;;;4966672;28;20098;-81
2021/07/05 01:44:32;;;;;;;15.23;10.00;;;13.60;99.90;;;;;;4935062;29;20090;-83
2021/07/05 01:47:00;;;;;;;22.73;10.43;;;13.60;99.90;;;;;;4952789;28;20055;-81
2021/07/05 01:49:27;;;;;;;17.80;9.88;;;13.70;99.90;;;;;;4937033;28;20042;-81
2021/07/05 01:51:54;;;;;;;17.63;10.55;;;13.70;99.90;;;;;;4945500;28;20048;-80
2021/07/05 01:54:21;;;;;;;15.60;9.95;;;13.60;99.90;;;;;;4946813;28;20330;-82
2021/07/05 01:56:49;;;;;;;14.23;9.85;;;13.60;99.90;;;;;;4934777;29;20063;-81
2021/07/05 01:59:34;;;;;;;17.65;10.57;;;13.60;99.90;;;;;;4972725;28;20813;-82
2021/07/05 02:02:04;;;;;;;19.90;11.18;;;13.50;99.90;;;;;;4975740;28;20058;-82
2021/07/05 02:04:31;;;;;;;16.40;11.02;;;13.60;99.90;;;;;;4973628;28;20066;-84
2021/07/05 02:06:58;;;;;;;16.80;11.65;;;13.70;99.90;;;;;;4972332;28;20078;-80
2021/07/05 02:09:25;;;;;;;16.45;11.18;;;13.70;99.90;;;;;;4949480;28;20074;-79
2021/07/05 02:11:52;;;;;;;14.75;9.75;;;13.50;99.90;;;;;;4968888;28;20066;-82
2021/07/05 02:14:19;;;;;;;11.90;8.48;;;13.30;99.90;;;;;;4950484;28;20054;-80
2021/07/05 02:16:46;;;;;;;17.45;8.98;;;13.30;99.90;;;;;;4952332;28;20509;-81
2021/07/05 02:19:12;;;;;;;14.13;9.20;;;13.30;99.90;;;;;;4969408;28;20492;-79
2021/07/05 02:21:39;;;;;;;20.38;10.57;;;13.30;99.90;;;;;;4957186;28;20491;-79
2021/07/05 02:24:06;;;;;;;19.45;12.05;;;13.10;99.90;;;;;;4940089;29;20391;-81
2021/07/05 02:26:33;;;;;;;20.08;11.65;;;13.10;99.90;;;;;;4938627;29;20179;-79
2021/07/05 02:29:00;;;;;;;15.98;9.80;;;13.10;99.90;;;;;;4936369;29;20051;-79
2021/07/05 02:31:26;;;;;;;17.70;10.63;;;12.90;99.90;;;;;;4937035;29;20107;-81
2021/07/05 02:33:53;;;;;;;23.17;11.90;;;13.00;99.90;;;;;;4920306;29;20053;-80
2021/07/05 02:36:20;;;;;;;22.42;11.18;;;13.00;99.90;;;;;;4952242;28;20102;-82
2021/07/05 02:38:48;;;;;;;20.73;12.50;;;13.10;99.90;;;;;;4925303;28;20051;-81
2021/07/05 02:41:15;;;;;;;27.25;13.05;;;13.00;99.90;;;;;;4988591;28;20050;-81
2021/07/05 02:43:42;;;;;;;23.95;11.82;;;13.00;99.90;;;;;;4937619;29;20047;-81
2021/07/05 02:46:09;;;;;;;18.05;11.40;;;13.10;99.90;;;;;;4921235;29;20087;-81
2021/07/05 02:48:36;;;;;;;20.90;11.52;;;13.00;99.90;;;;;;4966226;28;20066;-81
2021/07/05 02:51:05;;;;;;;18.90;11.90;;;12.90;99.90;;;;;;4988497;28;20073;-81
2021/07/05 02:53:32;;;;;;;21.10;11.82;;;12.80;99.90;;;;;;4973532;28;20075;-81
2021/07/05 02:56:00;;;;;;;19.92;10.45;;;12.70;99.90;;;;;;4943015;29;20077;-81
2021/07/05 02:58:27;;;;;;;19.60;10.63;;;12.60;99.90;;;;;;4943589;28;20097;-80
2021/07/05 03:00:57;;;;;;;16.17;9.55;;;12.50;99.90;;;;;;4953975;28;20378;-81
2021/07/05 03:03:24;;;;;;;16.98;9.20;;;12.50;99.90;;;;;;4956023;28;20039;-81
2021/07/05 03:05:52;;;;;;;11.55;8.45;;;12.40;99.90;;;;;;4988975;28;20047;-81
2021/07/05 03:08:20;;;;;;;20.20;9.23;;;12.30;99.90;;;;;;4960218;28;20698;-81
2021/07/05 03:10:47;;;;;;;15.80;8.98;;;12.20;99.90;;;;;;4938667;29;20039;-81
2021/07/05 03:13:17;;;;;;;18.88;9.38;;;12.20;99.90;;;;;;4939918;29;20078;-81
2021/07/05 03:15:46;;;;;;;16.98;9.52;;;12.10;99.90;;;;;;4985263;28;20046;-82
2021/07/05 03:18:13;;;;;;;16.40;9.63;;;12.10;99.90;;;;;;4981922;28;20093;-80
2021/07/05 03:20:43;;;;;;;19.50;9.98;;;12.10;99.90;;;;;;4973014;28;20134;-82
2021/07/05 03:23:13;;;;;;;25.08;9.63;;;12.10;99.90;;;;;;5005142;28;20637;-81
2021/07/05 03:25:40;;;;;;;13.25;8.57;;;12.10;99.90;;;;;;4954542;28;20050;-80
2021/07/05 03:28:09;;;;;;;22.90;10.75;;;12.00;99.90;;;;;;4986172;28;20059;-82
2021/07/05 03:30:38;;;;;;;23.50;10.65;;;12.10;99.90;;;;;;4955072;28;20059;-81
2021/07/05 03:33:06;;;;;;;22.30;12.10;;;12.20;99.90;;;;;;5000653;28;20055;-81
2021/07/05 03:35:33;;;;;;;19.25;11.10;;;12.30;99.90;;;;;;4926008;29;20104;-83
2021/07/05 03:38:00;;;;;;;18.15;8.98;;;12.20;99.90;;;;;;4952293;29;20058;-81
2021/07/05 03:40:30;;;;;;;16.00;9.35;;;12.10;99.90;;;;;;4967870;28;20055;-81
2021/07/05 03:42:58;;;;;;;17.80;10.13;;;12.00;99.90;;;;;;4936863;29;20412;-82
2021/07/05 03:45:30;;;;;;;20.48;11.73;;;12.10;99.90;;;;;;4935923;28;20071;-81
2021/07/05 03:47:58;;;;;;;18.33;11.35;;;12.30;99.90;;;;;;4948806;28;20066;-80
2021/07/05 03:50:26;;;;;;;15.98;9.95;;;12.30;99.90;;;;;;4986863;28;20123;-80
2021/07/05 03:52:54;;;;;;;17.08;10.07;;;12.20;99.90;;;;;;4986745;28;20425;-80
2021/07/05 03:55:28;;;;;;;16.48;9.25;;;12.20;99.90;;;;;;4952782;28;20051;-80
2021/07/05 03:57:56;;;;;;;13.50;9.40;;;12.20;99.90;;;;;;4936383;29;20059;-81
2021/07/05 04:00:28;;;;;;;15.40;8.73;;;12.30;99.90;;;;;;4939367;28;20078;-81
2021/07/05 04:02:55;;;;;;;17.27;8.38;;;12.30;99.90;;;;;;4955309;28;20118;-81
2021/07/05 04:05:22;;;;;;;11.18;7.65;;;12.20;99.90;;;;;;4955570;28;20047;-81
2021/07/05 04:07:49;;;;;;;12.68;7.70;;;12.10;99.90;;;;;;4939121;29;20505;-82
2021/07/05 04:10:17;;;;;;;14.98;8.52;;;12.20;99.90;;;;;;4976738;28;20440;-83
2021/07/05 04:12:44;;;;;;;12.10;7.70;;;12.10;99.90;;;;;;4944033;29;20118;-82
2021/07/05 04:15:13;;;;;;;11.13;6.60;;;11.90;99.90;;;;;;4937208;28;20102;-82
2021/07/05 04:17:40;;;;;;;11.15;6.63;;;11.80;99.90;;;;;;4964278;28;20070;-82
2021/07/05 04:20:13;;;;;;;12.38;7.60;;;11.80;99.90;;;;;;4971659;28;20051;-81
2021/07/05 04:22:41;;;;;;;10.52;6.72;;;11.80;99.90;;;;;;4988855;28;20143;-81
2021/07/05 04:25:10;;;;;;;8.38;6.03;;;11.90;99.90;;;;;;4947657;28;20031;-83
2021/07/05 04:27:37;;;;;;;10.57;6.65;;;11.90;99.90;;;;;;4949445;28;20247;-81
2021/07/05 04:30:06;;;;;;;12.38;7.38;;;11.90;99.90;;;;;;4970232;28;20404;-80
2021/07/05 04:32:32;;;;;;;11.70;7.43;;;12.00;99.90;;;;;;4970533;28;20075;-81
2021/07/05 04:34:59;;;;;;;10.65;6.68;;;12.10;99.90;;;;;;4972391;28;20170;-81
2021/07/05 04:37:26;;;;;;;11.00;6.90;;;12.40;99.90;;;;;;4974958;28;20425;-81
2021/07/05 04:39:53;;;;;;;6.40;4.78;;;12.60;99.90;;;;;;4934090;29;20062;-81
2021/07/05 04:42:20;;;;;;;5.68;4.32;;;13.00;99.90;;;;;;4949252;29;20051;-82
2021/07/05 04:44:50;;;;;;;10.02;3.95;;;13.50;99.90;;;;;;4981895;28;20560;-82
2021/07/05 04:47:17;;;;;;;8.25;3.53;;;13.60;99.90;;;;;;4961986;28;20039;-82
2021/07/05 04:49:44;;;;;;;9.02;3.72;;;14.00;99.90;;;;;;4968625;28;20137;-81
2021/07/05 04:52:10;;;;;;;8.30;4.80;;;14.40;99.90;;;;;;4955276;28;20154;-81
2021/07/05 04:54:37;;;;;;;4.55;3.08;;;14.50;99.90;;;;;;4999278;28;20051;-81
2021/07/05 04:57:04;;;;;;;3.45;3.15;;;14.60;99.90;;;;;;4981618;28;20130;-80
2021/07/05 04:59:31;;;;;;;4.88;2.60;;;14.70;99.90;;;;;;4933221;29;20047;-80
2021/07/05 05:01:58;;;;;;;6.05;2.70;;;14.70;99.90;;;;;;4948099;29;20733;-81
2021/07/05 05:04:25;;;;;;;3.45;3.05;;;14.70;99.90;;;;;;4919465;29;20805;-79
2021/07/05 05:06:52;;;;;;;2.97;2.65;;;14.70;99.90;;;;;;4980202;28;20453;-81
2021/07/05 05:09:23;;;;;;;3.50;3.20;;;14.60;99.90;;;;;;4949864;28;20073;-82
2021/07/05 05:11:51;;;;;;;3.28;2.95;;;14.50;99.90;;;;;;4964497;28;20047;-80
2021/07/05 05:14:18;;;;;;;5.28;3.08;;;14.60;99.90;;;;;;4949816;29;20565;-81
2021/07/05 05:16:46;;;;;;;2.80;2.60;;;14.70;99.90;;;;;;4967824;28;20035;-82
2021/07/05 05:19:13;;;;;;;2.80;2.22;;;15.20;99.90;;;;;;4968001;28;20130;-81
2021/07/05 05:21:40;;;;;;;2.53;2.33;;;15.30;99.90;;;;;;4950326;28;20069;-83
2021/07/05 05:24:07;;;;;;;3.50;2.25;;;15.60;99.90;;;;;;4984129;28;20035;-80
2021/07/05 05:26:34;;;;;;;5.22;2.53;;;16.00;99.90;;;;;;4917819;29;20039;-81
2021/07/05 05:29:01;;;;;;;3.42;2.67;;;16.30;99.90;;;;;;4962912;28;20695;-82
2021/07/05 05:31:30;;;;;;;3.03;2.15;;;16.50;99.90;;;;;;4947174;28;20058;-81
2021/07/05 05:33:59;;;;;;;3.88;2.10;;;16.50;99.90;;;;;;4933772;29;20512;-81
2021/07/05 05:36:26;;;;;;;4.35;2.50;;;17.00;99.90;;;;;;4964074;28;20075;-81
2021/07/05 05:38:53;;;;;;;2.60;2.40;;;17.40;99.90;;;;;;4934681;28;20079;-79
2021/07/05 05:41:20;;;;;;;3.05;2.55;;;17.60;99.90;;;;;;4955067;28;20054;-80
2021/07/05 05:43:47;;;;;;;3.22;2.40;;;17.70;99.90;;;;;;4946147;29;20057;-81
2021/07/05 05:46:15;;;;;;;4.50;3.30;;;18.00;99.90;;;;;;4916795;28;20043;-81
2021/07/05 05:48:44;;;;;;;3.00;2.70;;;18.20;99.90;;;;;;4984025;28;20077;-82
2021/07/05 05:51:11;;;;;;;4.30;2.80;;;18.30;99.90;;;;;;4983272;28;20520;-80
2021/07/05 05:53:38;;;;;;;2.92;2.75;;;18.30;99.90;;;;;;4969899;28;20047;-81
2021/07/05 05:56:05;;;;;;;3.42;3.15;;;18.30;99.90;;;;;;4968049;28;20089;-81
2021/07/05 05:58:36;;;;;;;5.47;2.85;;;18.40;99.90;;;;;;4984875;28;20525;-80
2021/07/05 06:01:04;;;;;;;3.33;2.80;;;18.50;99.90;;;;;;4935358;29;20047;-81
2021/07/05 06:03:32;;;;;;;2.92;2.72;;;19.00;99.90;;;;;;4968244;28;20698;-81
2021/07/05 06:05:59;;;;;;;3.45;3.25;;;19.40;99.90;;;;;;4964692;28;20794;-80
2021/07/05 06:08:26;;;;;;;3.33;3.13;;;19.60;99.90;;;;;;4968598;28;20133;-82
2021/07/05 06:10:53;;;;;;;4.32;3.40;;;19.80;99.90;;;;;;4941014;28;20137;-80
2021/07/05 06:13:20;;;;;;;3.83;3.63;;;19.70;99.90;;;;;;4963575;28;20043;-79
2021/07/05 06:15:47;;;;;;;3.88;3.60;;;19.70;99.90;;;;;;4954786;28;20053;-81
2021/07/05 06:18:13;;;;;;;4.03;3.72;;;19.40;99.90;;;;;;4966680;28;20043;-81
2021/07/05 06:20:42;;;;;;;5.47;3.80;;;19.00;99.90;;;;;;4964899;28;20054;-80
2021/07/05 06:23:25;;;;;;;4.00;2.70;;;18.80;99.90;;;;;;4954443;28;20235;-81
2021/07/05 06:25:54;;;;;;;3.75;2.90;;;18.40;99.90;;;;;;4961629;28;20055;-80
2021/07/05 06:28:22;;;;;;;3.03;2.78;;;18.10;99.90;;;;;;4941786;28;20061;-80
2021/07/05 06:30:50;;;;;;;3.53;3.10;;;17.90;99.90;;;;;;4990027;28;20466;-82
2021/07/05 06:33:18;;;;;;;3.80;3.40;;;17.60;99.90;;;;;;4960462;28;20556;-82
2021/07/05 06:35:47;;;;;;;8.52;2.88;;;17.60;99.90;;;;;;4970052;28;20047;-81
2021/07/05 06:38:16;;;;;;;3.75;3.13;;;17.60;99.90;;;;;;4970338;28;20047;-80
2021/07/05 06:40:43;;;;;;;4.40;3.72;;;17.50;99.90;;;;;;4937576;29;20102;-80
2021/07/05 06:43:12;;;;;;;6.60;4.32;;;17.40;99.90;;;;;;4954338;28;20102;-81
2021/07/05 06:45:45;;;;;;;7.68;5.13;;;17.50;99.90;;;;;;4964387;28;20039;-80
2021/07/05 06:48:12;;;;;;;6.28;5.63;;;17.30;99.90;;;;;;4960785;28;20134;-81
2021/07/05 06:50:43;;;;;;;6.30;5.22;;;17.10;99.90;;;;;;4975341;28;20074;-83
2021/07/05 06:53:10;;;;;;;9.55;6.18;;;16.90;99.90;;;;;;4969497;28;20708;-81
2021/07/05 06:55:37;;;;;;;10.07;6.00;;;16.70;99.90;;;;;;4936243;28;20078;-83
2021/07/05 06:58:05;;;;;;;6.90;6.22;;;16.60;99.90;;;;;;4967596;28;20159;-82
2021/07/05 07:00:32;;;;;;;7.93;5.82;;;16.60;99.90;;;;;;4936132;28;20509;-81
2021/07/05 07:02:59;;;;;;;8.30;5.72;;;16.60;99.90;;;;;;4935778;29;20059;-81
2021/07/05 07:05:27;;;;;;;8.15;5.80;;;16.60;99.90;;;;;;4937281;28;20050;-82
2021/07/05 07:07:56;;;;;;;9.40;6.05;;;16.70;99.90;;;;;;4941024;29;20071;-81
2021/07/05 07:10:25;;;;;;;9.13;6.72;;;16.80;99.90;;;;;;4961106;28;20070;-80
2021/07/05 07:12:55;;;;;;;7.38;5.60;;;16.80;99.90;;;;;;4949356;28;20269;-80
2021/07/05 07:15:46;;;;;;;7.43;6.55;;;16.60;99.90;;;;;;4970252;28;20680;-80
2021/07/05 07:21:01;;;;;;;6.60;5.95;;;16.60;99.90;;;;;;4938488;29;20043;-83
2021/07/05 07:23:29;;;;;;;7.85;5.53;;;16.60;99.90;;;;;;4953794;29;20141;-81
2021/07/05 07:25:56;;;;;;;5.82;5.22;;;16.50;99.90;;;;;;4922998;29;20036;-82
2021/07/05 07:28:23;;;;;;;8.15;6.05;;;16.40;99.90;;;;;;4941616;29;20055;-81
2021/07/05 07:30:50;;;;;;;6.78;5.78;;;16.40;99.90;;;;;;4952632;29;20177;-83
2021/07/05 07:33:17;;;;;;;9.00;5.95;;;16.30;99.90;;;;;;4969437;28;20074;-80
2021/07/05 07:35:45;;;;;;;7.05;5.32;;;16.40;99.90;;;;;;4988136;28;20130;-84
2021/07/05 07:38:12;;;;;;;6.35;5.40;;;16.40;99.90;;;;;;4970217;28;20167;-83
2021/07/05 07:40:41;;;;;;;7.90;6.75;;;16.30;99.90;;;;;;4953809;29;20130;-82
2021/07/05 07:43:08;;;;;;;5.85;5.28;;;16.30;99.90;;;;;;4971830;28;20081;-83
2021/07/05 07:45:36;;;;;;;6.22;4.97;;;16.20;99.90;;;;;;4999710;28;20050;-81
2021/07/05 07:48:04;;;;;;;7.25;5.22;;;16.20;99.90;;;;;;4967902;28;20043;-81
2021/07/05 07:50:32;;;;;;;10.25;5.63;;;16.20;99.90;;;;;;5005648;28;20043;-83
2021/07/05 07:52:59;;;;;;;8.05;5.75;;;16.20;99.90;;;;;;4991310;28;20034;-83
2021/07/05 07:55:26;;;;;;;7.85;5.47;;;16.20;99.90;;;;;;4991133;28;20038;-84
2021/07/05 07:57:53;;;;;;;6.75;6.00;;;16.20;99.90;;;;;;4978838;28;20151;-80
2021/07/05 08:00:21;;;;;;;7.53;6.57;;;16.10;99.90;;;;;;4974614;28;20141;-81
2021/07/05 08:02:48;;;;;;;8.82;6.40;;;16.00;99.90;;;;;;4959723;28;20504;-82
2021/07/05 08:05:15;;;;;;;8.65;7.78;;;16.00;99.90;;;;;;4984105;28;20036;-83
2021/07/05 08:07:43;;;;;;;11.05;9.18;;;15.90;99.90;;;;;;4958763;28;20685;-83
2021/07/05 08:10:13;;;;;;;10.95;9.65;;;15.90;99.90;;;;;;4953189;28;20044;-80
2021/07/05 08:12:43;;;;;;;13.10;10.00;;;15.90;99.90;;;;;;4940250;29;20047;-79
2021/07/05 08:15:13;;;;;;;11.35;9.38;;;15.90;99.90;;;;;;4956089;28;20054;-80
2021/07/05 08:17:44;;;;;;;13.45;10.18;;;15.90;99.90;;;;;;4945651;29;20051;-81
2021/07/05 08:20:12;;;;;;;17.73;9.00;;;15.90;99.90;;;;;;4955715;28;20044;-79
2021/07/05 08:22:39;;;;;;;12.45;10.13;;;15.80;99.90;;;;;;4957908;29;20054;-81
2021/07/05 08:25:07;;;;;;;10.85;6.30;;;15.80;99.90;;;;;;4945139;29;20095;-80
2021/07/05 08:27:34;;;;;;;11.25;6.38;;;15.80;99.90;;;;;;4971222;28;20046;-81
2021/07/05 08:30:04;;;;;;;8.88;4.55;;;15.70;99.90;;;;;;4995595;28;20119;-80
2021/07/05 08:32:32;;;;;;;9.80;5.20;;;15.60;99.90;;;;;;4952242;28;20074;-80
2021/07/05 08:34:59;;;;;;;7.95;4.88;;;15.60;99.90;;;;;;4967462;28;20082;-82
2021/07/05 08:37:26;;;;;;;10.85;5.72;;;15.60;99.90;;;;;;4987424;28;20051;-81
2021/07/05 08:39:53;;;;;;;9.02;5.90;;;15.70;99.90;;;;;;4968837;29;20120;-84
2021/07/05 08:42:25;;;;;;;8.77;6.95;;;15.80;99.90;;;;;;4987032;28;20067;-82
2021/07/05 08:44:53;;;;;;;8.93;7.07;;;15.90;99.90;;;;;;4988811;28;20105;-81
2021/07/05 08:47:22;;;;;;;4.82;4.32;;;16.00;99.90;;;;;;4996279;28;20030;-81
2021/07/05 08:49:51;;;;;;;7.90;6.10;;;16.10;99.90;;;;;;4953755;29;20043;-80
2021/07/05 08:52:18;;;;;;;7.85;6.15;;;16.20;99.90;;;;;;4962848;28;20046;-83
2021/07/05 08:54:44;;;;;;;6.15;5.53;;;16.30;99.90;;;;;;4991152;28;20512;-82
2021/07/05 09:00:17;;;;;;;6.22;5.63;;;16.60;99.90;;;;;;4952161;29;20055;-83
2021/07/05 09:02:44;;;;;;;5.47;4.90;;;17.00;99.90;;;;;;4959066;28;20091;-80
2021/07/05 09:05:13;;;;;;;3.83;2.65;;;17.20;99.90;;;;;;4946853;28;20114;-82
2021/07/05 09:08:02;;;;;;;1.73;1.63;;;17.10;99.90;;;;;;4940923;29;20043;-80
2021/07/05 09:10:52;;;;;;;1.88;0.88;;;17.00;99.90;;;;;;4939558;28;20041;-80
2021/07/05 09:13:24;;;;;;;0.70;0.68;;;16.90;99.90;;;;;;4972265;28;20051;-79
2021/07/05 09:15:56;;;;;;;0.77;0.57;;;16.70;99.90;;;;;;4937291;29;20039;-79
2021/07/05 09:18:29;;;;;;;0.80;0.70;;;17.00;99.90;;;;;;4968006;28;20043;-81
2021/07/05 09:21:21;;;;;;;2.05;0.90;;;17.00;99.90;;;;;;4942739;28;20048;-79
2021/07/05 09:23:55;;;;;;;1.10;1.00;;;17.20;99.90;;;;;;4949941;28;20055;-81
2021/07/05 09:26:34;;;;;;;2.50;1.10;;;17.10;99.90;;;;;;4944245;28;20047;-80
2021/07/05 09:29:18;;;;;;;1.35;1.20;;;17.20;99.90;;;;;;5007693;28;20047;-82
2021/07/05 09:31:54;;;;;;;1.50;1.40;;;17.10;99.90;;;;;;4978356;28;20450;-81
2021/07/05 09:34:28;;;;;;;1.25;1.10;;;17.20;99.90;;;;;;5015695;28;20046;-79
2021/07/05 09:37:09;;;;;;;3.90;1.33;;;17.20;99.90;;;;;;4959159;28;20662;-81
2021/07/05 09:39:36;;;;;;;2.53;1.52;;;17.20;99.90;;;;;;4987568;28;20051;-79
2021/07/05 09:42:10;;;;;;;1.73;1.50;;;17.30;99.90;;;;;;4942344;29;20146;-81
2021/07/05 09:44:47;;;;;;;2.22;1.90;;;17.20;99.90;;;;;;4973971;28;20082;-80
2021/07/05 09:47:18;;;;;;;2.63;2.42;;;17.30;99.90;;;;;;4989065;28;20047;-79
2021/07/05 09:49:46;;;;;;;1.77;1.63;;;17.60;99.90;;;;;;4946058;28;20042;-82
2021/07/05 09:52:13;;;;;;;12.02;4.18;;;17.70;99.90;;;;;;4958088;28;20053;-78
2021/07/05 09:54:48;;;;;;;1.85;1.42;;;18.10;99.90;;;;;;4943669;28;20348;-81
2021/07/05 09:57:26;;;;;;;4.30;1.52;;;18.40;99.90;;;;;;4974883;28;20047;-81
2021/07/05 09:59:57;;;;;;;3.67;3.38;;;18.40;99.90;;;;;;4973799;28;20486;-81
2021/07/05 10:02:25;;;;;;;2.95;2.53;;;18.70;99.90;;;;;;4957311;28;20071;-80
2021/07/05 10:05:08;;;;;;;2.42;2.33;;;18.80;99.90;;;;;;4967949;28;20046;-80
2021/07/05 10:07:35;;;;;;;4.10;3.80;;;18.60;99.90;;;;;;4951553;28;20055;-82
2021/07/05 10:10:13;;;;;;;3.47;3.28;;;18.50;99.90;;;;;;4954691;28;20039;-80
2021/07/05 10:12:59;;;;;;;3.35;3.15;;;18.30;99.90;;;;;;4959616;28;20082;-80
2021/07/05 10:15:27;;;;;;;2.33;2.13;;;18.30;99.90;;;;;;4925049;28;20091;-81
2021/07/05 10:17:56;;;;;;;3.25;2.65;;;18.70;99.90;;;;;;4955280;29;20035;-80
2021/07/05 10:20:26;;;;;;;3.92;3.63;;;18.70;99.90;;;;;;4954186;28;20528;-80
2021/07/05 10:22:56;;;;;;;5.05;4.65;;;18.80;99.90;;;;;;4939254;29;20505;-78
2021/07/05 10:25:27;;;;;;;5.25;4.85;;;18.80;99.90;;;;;;4972738;28;20050;-79
2021/07/05 10:27:54;;;;;;;4.13;3.83;;;18.80;99.90;;;;;;4955351;29;20036;-79
2021/07/05 10:30:23;;;;;;;4.00;3.70;;;19.20;99.90;;;;;;4985880;28;20047;-80
2021/07/05 10:32:51;;;;;;;2.92;2.70;;;19.40;99.90;;;;;;4940223;29;20058;-80
2021/07/05 10:35:31;;;;;;;2.83;2.63;;;19.90;99.90;;;;;;4969228;28;20113;-80
2021/07/05 10:38:05;;;;;;;3.47;3.03;;;20.00;99.90;;;;;;4970275;28;20536;-82
2021/07/05 10:40:40;;;;;;;4.25;3.85;;;20.30;99.90;;;;;;4961250;28;20787;-81
2021/07/05 10:43:08;;;;;;;;;;;20.50;99.90;;;;;;4934537;29;20067;-79
2021/07/05 10:45:49;;;;;;;4.38;4.07;;;20.50;99.90;;;;;;4951814;28;19922;-81
2021/07/05 10:48:31;;;;;;;4.35;3.70;;;20.30;99.90;;;;;;4975118;28;20051;-80
2021/07/05 10:50:59;;;;;;;3.67;3.38;;;20.20;99.90;;;;;;4992027;28;20067;-82
2021/07/05 10:53:32;;;;;;;3.63;3.35;;;19.70;99.90;;;;;;4941616;29;20047;-81
2021/07/05 10:56:22;;;;;;;3.42;3.17;;;19.30;99.90;;;;;;4939166;29;20043;-81
2021/07/05 10:58:50;;;;;;;4.72;4.43;;;19.30;99.90;;;;;;4924311;29;20083;-81
2021/07/05 11:01:38;;;;;;;5.97;4.13;;;19.30;99.90;;;;;;4948190;28;20465;-80
2021/07/05 11:04:19;;;;;;;4.50;4.18;;;19.40;99.90;;;;;;4942268;28;20079;-81
2021/07/05 11:06:47;;;;;;;5.25;4.75;;;19.50;99.90;;;;;;4962025;28;20043;-79
2021/07/05 11:09:21;;;;;;;5.85;5.55;;;19.60;99.90;;;;;;4955253;29;20056;-79
2021/07/05 11:11:58;;;;;;;4.82;4.53;;;19.80;99.90;;;;;;4992777;28;20053;-83
2021/07/05 11:14:37;;;;;;;4.70;4.28;;;20.00;99.90;;;;;;4920910;29;20257;-81
2021/07/05 11:17:22;;;;;;;4.78;4.35;;;20.00;99.90;;;;;;4953233;28;20058;-83
2021/07/05 11:19:52;;;;;;;4.00;3.70;;;20.10;99.90;;;;;;4952375;29;20055;-83
2021/07/05 11:22:27;;;;;;;4.80;4.40;;;20.50;99.90;;;;;;4931885;28;20619;-80
2021/07/05 11:25:07;;;;;;;4.07;3.88;;;20.50;99.90;;;;;;4940537;28;20058;-80
2021/07/05 11:27:47;;;;;;;4.65;4.35;;;20.90;99.90;;;;;;4972277;28;20058;-83
2021/07/05 11:30:38;;;;;;;5.78;4.70;;;21.00;99.90;;;;;;4957379;28;20043;-84
2021/07/05 11:33:11;;;;;;;4.82;4.63;;;21.10;99.90;;;;;;4952043;28;20039;-80
2021/07/05 11:35:44;;;;;;;5.35;4.88;;;21.00;99.90;;;;;;4954296;28;20050;-81
2021/07/05 11:38:42;;;;;;;4.40;4.20;;;21.10;99.90;;;;;;4939404;28;20054;-81
2021/07/05 11:41:12;;;;;;;5.10;4.80;;;21.50;99.90;;;;;;4963207;28;20111;-81
2021/07/05 11:43:57;;;;;;;5.68;5.45;;;21.50;99.90;;;;;;4939601;28;20047;-80
2021/07/05 11:46:27;;;;;;;6.47;6.13;;;21.50;99.90;;;;;;4987189;28;20070;-78
2021/07/05 11:49:02;;;;;;;5.90;5.70;;;21.30;99.90;;;;;;4970226;28;20071;-81
2021/07/05 11:51:31;;;;;;;5.78;5.55;;;21.50;99.90;;;;;;4983607;28;20079;-80
2021/07/05 11:54:05;;;;;;;5.38;5.18;;;21.60;99.90;;;;;;4984077;28;20118;-81
2021/07/05 11:56:44;;;;;;;4.43;4.30;;;21.90;99.90;;;;;;4994735;28;20134;-82
2021/07/05 11:59:15;;;;;;;6.45;6.15;;;22.20;99.90;;;;;;4942185;28;20074;-82
2021/07/05 12:01:44;;;;;;;6.70;6.28;;;22.30;99.90;;;;;;4922856;29;20074;-80
2021/07/05 12:04:11;;;;;;;6.80;6.50;;;22.50;99.90;;;;;;4963332;28;20043;-83
2021/07/05 12:06:47;;;;;;;6.20;5.90;;;22.50;99.90;;;;;;4981241;28;20072;-82
2021/07/05 12:09:16;;;;;;;6.50;6.10;;;22.40;99.90;;;;;;4964796;28;20098;-81
2021/07/05 12:11:47;;;;;;;6.95;6.55;;;22.30;99.90;;;;;;4921176;29;20126;-82
2021/07/05 12:14:25;;;;;;;6.18;5.68;;;22.00;99.90;;;;;;4963980;28;20077;-83
2021/07/05 12:16:55;;;;;;;6.82;6.43;;;22.20;99.90;;;;;;4968093;28;20043;-79
2021/07/05 12:19:23;;;;;;;7.20;6.80;;;22.10;99.90;;;;;;4921153;29;20051;-79
2021/07/05 12:22:02;;;;;;;7.07;6.70;;;22.10;99.90;;;;;;4990488;28;20042;-80
2021/07/05 12:24:32;;;;;;;6.38;5.97;;;22.60;99.90;;;;;;4971871;28;20043;-81
2021/07/05 12:27:20;;;;;;;6.30;6.00;;;22.70;99.90;;;;;;4986627;28;20265;-83
2021/07/05 12:30:04;;;;;;;7.60;7.10;;;22.80;99.90;;;;;;4971876;28;20491;-80
2021/07/05 12:32:34;;;;;;;6.53;6.18;;;22.60;99.90;;;;;;4994843;28;20202;-81
2021/07/05 12:35:10;;;;;;;7.07;6.53;;;22.20;99.90;;;;;;4949891;28;20054;-81
2021/07/05 12:37:40;;;;;;;7.68;7.07;;;22.10;99.90;;;;;;4942937;28;20532;-82
2021/07/05 12:40:07;;;;;;;7.90;7.50;;;22.00;99.90;;;;;;4965519;28;20047;-85
2021/07/05 12:42:39;;;;;;;7.75;7.30;;;22.00;99.90;;;;;;4954495;28;20071;-82
2021/07/05 12:45:14;;;;;;;6.60;6.30;;;22.00;99.90;;;;;;4970097;28;20107;-84
2021/07/05 12:47:50;;;;;;;7.82;7.40;;;22.00;99.90;;;;;;4970506;28;20055;-80
2021/07/05 12:50:20;;;;;;;7.70;7.30;;;22.00;99.90;;;;;;4950581;28;20038;-81
2021/07/05 12:53:00;;;;;;;8.50;8.13;;;22.00;99.90;;;;;;4986446;28;20055;-81
2021/07/05 12:55:27;;;;;;;8.90;8.40;;;21.80;99.90;;;;;;4977852;28;20054;-81
2021/07/05 12:57:54;;;;;;;9.75;9.25;;;21.90;99.90;;;;;;4959257;28;20042;-83
2021/07/05 13:00:24;;;;;;;9.65;9.02;;;21.80;99.90;;;;;;4953034;28;20411;-81